ASN logo
Last updated: 19 June 2019
Statuts:Enquête Officielle
Date:mardi 5 septembre 2017
Heure:ca 02:40
Type/Sous-type:Silhouette image of generic B738 model; specific model in this crash may look slightly different
Boeing 737-8HG (WL)
Compagnie:Air India Express
Immatriculation: VT-AYB
Numéro de série: 36338/2962
Année de Fabrication: 2009-06-28 (8 years 2 months)
Heures de vol:26525
Cycles:9180
Moteurs: 2 CFMI CFM56-7B26
Equipage:victimes: 0 / à bord: 6
Passagers:victimes: 0 / à bord: 102
Total:victimes: 0 / à bord: 108
Dégats de l'appareil: Substantiels
Conséquences: Repaired
Lieu de l'accident:Cochin International Airport (COK) (   Inde)
Phase de vol: A l'atterrissage (LDG)
Nature:Transport de Passagers Intern.
Aéroport de départ:Abu Dhabi International Airport (AUH/OMAA), Emirats Arabes Unis
Aéroport de destination:Cochin International Airport (COK/VOCI), Inde
Numéro de vol:IX452
Détails:
Air India Express flight 452 was damaged in a taxiing accident at Cochin International Airport, India.
The aircraft, a Boeing 737-8HG (WL), landed on runway 27 at 02:37 hours local time following a flight from Abu Dhabi International Airport. After landing the aircraft vacated runway at exit C2 and was given taxi clearance to bay 23L via taxiways C, F and L.
While taxiing, the co–pilot stated to the captain: "Sir, go extremely slow because the runway mark at the marking over there might not be seen. So then we might have to call for follow me."
The captain did not respond to the suggestion to call for a Follow me vehicle. The co-pilot then informed the captain about passing taxiway E and stated "next is Foxtrot".
After crossing abeam taxiway E on taxiway C the captain made a premature left turn 90 meters before taxiway F. The aircraft entered in an open rain water drain (3 meter wide, 1.7 meter deep). The nose landing gear collapsed and the aircraft further moved forward on the damaged nose gear until the main landing gears entered the drain. Both engines and rear belly of the aircraft became the weight bearing member and main landing gear were freely suspended in the drain.

Probable Cause:

Probable cause of the Accident:
Incorrect judgement taken by PIC for initiating left turn short of the taxi track link (before Taxiway F), during night, in rain during reduced visibility conditions thus resulting the aircraft entering in open rain water drain.
Contributory factors:
1. Taxiway C centre line was barely visible during night in rains in reduced visibility conditions.
2. Dis-agreement of PIC with Co-pilot for requesting "Follow Me" jeep at Taxiway C.
3. Window of circadian low of PIC.

Accident investigation:
cover
Investigating agency: AAIB India
Status: Investigation completed
Duration: 1 year and 8 months
Accident number: final report
Download report: Final report

METAR Weather report:
20:30 UTC / 02:00 local time:
VOCI 042030Z 00000KT 4000 -RA FEW010 SCT012 OVC080 27/25 Q1009 NOSIG

21:00 UTC / 02:30 local time:
VOCI 042100Z 00000KT 4000 RA SCT008 SCT012 FEW025CB OVC080 27/25 Q1009 BECMG 3000 RA

21:30 UTC / 03:00 local time:
VOCI 042130Z 05006KT 3000 -RA SCT008 SCT012 FEW025CB OVC080 26/25 Q1009 NOSIG


Photos

photo of Boeing-737-8HG-VT-AYB
accident date: 05-09-2017
type: Boeing 737-8HG (WL)
registration: VT-AYB
photo of Boeing-737-8HG-VT-AYB
accident date: 05-09-2017
type: Boeing 737-8HG (WL)
registration: VT-AYB
photo of Boeing-737-8HG-VT-AYB
accident date: 05-09-2017
type: Boeing 737-8HG (WL)
registration: VT-AYB
photo of Boeing-737-8HG-VT-AYB
 

Video, social media

Plan
Ce plan montre l'aéroport de départ ainsi que la supposée destination du vol. La ligne fixe reliant les deux aéroports n'est pas le plan de vol exact.
La distance entre Abu Dhabi International Airport et Cochin International Airport est de 2777 km (1736 miles).
Accident location: Exact; deduced from official accident report.

Les informations ci-dessus ne représentent pas l'opinion de la 'Flight Safety Foundation' ou de 'Aviation Safety Network' sur les causes de l'accident. Ces informations prélimimaires sont basées sur les faits tel qu'ils sont connus à ce jour.
languages: languages

Share